Terminal Aerodrome Forecast
Issued by NWS New Orleans/Baton Rouge, LA

Home | Current Version | Previous Version | Text Only | Print | Product List | Glossary On
Versions: 1 2 3 4 5 6 7 8 9 10 11 12 13 14 15 16 17 18 19 20 21 22 23
000
FTUS44 KLIX 221100 RRA
TAFNEW
TAF
KNEW 221140Z 2212/2312 35007KT P6SM SKC
     FM222000 01008KT P6SM VCSH SCT050
     FM222300 02008KT P6SM FEW050 SCT250
     FM230200 04014KT P6SM FEW250
     FM230500 05020G28KT P6SM FEW250=

USA.gov is the U.S. government's official web portal to all federal, state and local government web resources and services.